createdAt,value
2022-10-03T00:01:21.471Z,69.07
2022-10-03T00:03:34.346Z,69.06
2022-10-03T00:05:50.365Z,68.67
2022-10-03T00:08:07.730Z,68.63
2022-10-03T00:10:22.410Z,68.74
2022-10-03T00:12:41.480Z,69.03
2022-10-03T00:14:52.449Z,68.98
2022-10-03T00:17:03.124Z,68.83
2022-10-03T00:19:12.223Z,68.96
2022-10-03T00:21:22.983Z,68.42
2022-10-03T00:23:36.204Z,68.08
2022-10-03T00:25:46.335Z,68.26
2022-10-03T00:27:55.718Z,68.62
2022-10-03T00:30:18.045Z,69.44
2022-10-03T00:32:35.202Z,69.17
2022-10-03T00:34:48.844Z,69.39
2022-10-03T00:37:05.122Z,69.65
2022-10-03T00:39:31.837Z,68.01
2022-10-03T00:41:50.228Z,68.32
2022-10-03T00:44:24.244Z,68.13
2022-10-03T00:47:02.036Z,68.64
2022-10-03T00:49:38.892Z,69.13
2022-10-03T00:51:52.575Z,69.34
2022-10-03T00:54:06.995Z,69.01
2022-10-03T00:56:28.325Z,67.74
2022-10-03T00:58:48.112Z,67.00
2022-10-03T01:00:50.839Z,67.81
2022-10-03T01:03:19.163Z,67.17
2022-10-03T01:05:31.461Z,67.05
2022-10-03T01:07:55.496Z,67.93
2022-10-03T01:10:10.257Z,68.23
2022-10-03T01:12:40.279Z,67.99
2022-10-03T01:15:06.331Z,67.45
2022-10-03T01:17:18.400Z,67.31
2022-10-03T01:19:40.619Z,66.78
2022-10-03T01:21:51.766Z,67.64
2022-10-03T01:24:19.384Z,66.92
2022-10-03T01:26:46.395Z,66.36
2022-10-03T01:28:53.989Z,66.29
2022-10-03T01:30:59.861Z,66.41
2022-10-03T01:33:09.713Z,66.10
2022-10-03T01:35:29.749Z,65.40
2022-10-03T01:37:38.077Z,65.57
2022-10-03T01:39:49.305Z,65.78
2022-10-03T01:41:58.914Z,65.54
2022-10-03T01:44:12.713Z,65.39
2022-10-03T01:46:20.674Z,66.02
2022-10-03T01:48:30.926Z,65.24
2022-10-03T01:50:38.459Z,64.69
2022-10-03T01:52:48.959Z,66.17
2022-10-03T01:55:00.201Z,65.59
2022-10-03T01:57:15.819Z,64.60
2022-10-03T01:59:29.148Z,64.44
2022-10-03T02:01:40.936Z,64.38
2022-10-03T02:03:52.722Z,65.50
2022-10-03T02:06:02.939Z,64.78
2022-10-03T02:08:10.137Z,64.96
2022-10-03T02:10:22.470Z,65.13
2022-10-03T02:12:30.522Z,65.38
2022-10-03T02:14:45.356Z,64.63
2022-10-03T02:16:56.544Z,65.94
2022-10-03T02:19:04.737Z,64.01
2022-10-03T02:21:14.624Z,64.19
2022-10-03T02:23:25.921Z,65.41
2022-10-03T02:25:42.915Z,63.62
2022-10-03T02:28:22.031Z,64.61
2022-10-03T02:30:39.483Z,64.39
2022-10-03T02:33:18.190Z,63.53
2022-10-03T02:35:48.771Z,63.48
2022-10-03T02:38:16.452Z,64.70
2022-10-03T02:40:37.777Z,64.69
2022-10-03T02:43:18.291Z,62.56
2022-10-03T02:45:50.451Z,63.91
2022-10-03T02:48:32.594Z,64.15
2022-10-03T02:51:14.678Z,63.00
2022-10-03T02:53:56.304Z,62.78
2022-10-03T02:56:21.285Z,63.57
2022-10-03T02:58:53.366Z,62.90
2022-10-03T03:01:18.296Z,62.77
2022-10-03T03:03:48.699Z,63.00
2022-10-03T03:06:30.378Z,63.43
2022-10-03T03:09:00.453Z,62.88
2022-10-03T03:11:17.184Z,63.00
2022-10-03T03:13:37.037Z,62.79
2022-10-03T03:16:03.852Z,63.25
2022-10-03T03:18:17.487Z,62.56
2022-10-03T03:20:40.773Z,64.15
2022-10-03T03:22:56.232Z,64.31
2022-10-03T03:25:21.760Z,62.25
2022-10-03T03:27:37.779Z,63.29
2022-10-03T03:29:48.232Z,62.60
2022-10-03T03:31:57.869Z,62.82
2022-10-03T03:34:09.224Z,62.07
2022-10-03T03:36:22.291Z,61.27
2022-10-03T03:38:31.744Z,60.35
2022-10-03T03:40:44.678Z,59.76
2022-10-03T03:43:05.507Z,60.52
2022-10-03T03:45:36.364Z,59.89
2022-10-03T03:48:08.272Z,61.39
2022-10-03T03:50:31.154Z,61.60
2022-10-03T03:52:50.437Z,60.63
2022-10-03T03:55:12.719Z,60.96
2022-10-03T03:57:28.192Z,60.81
2022-10-03T03:59:43.991Z,60.96
2022-10-03T04:02:01.417Z,60.73
2022-10-03T04:04:16.454Z,60.72
2022-10-03T04:06:31.900Z,62.01
2022-10-03T04:09:00.188Z,60.32
2022-10-03T04:11:15.803Z,61.88
2022-10-03T04:13:34.532Z,61.19
2022-10-03T04:16:11.046Z,61.13
2022-10-03T04:18:32.827Z,61.21
2022-10-03T04:20:51.852Z,61.11
2022-10-03T04:23:10.488Z,60.64
2022-10-03T04:25:25.229Z,60.75
2022-10-03T04:27:46.805Z,60.73
2022-10-03T04:29:57.309Z,60.54
2022-10-03T04:32:10.602Z,59.42
2022-10-03T04:34:37.734Z,59.65
2022-10-03T04:37:07.618Z,59.92
2022-10-03T04:39:20.731Z,59.28
2022-10-03T04:41:31.313Z,59.96
2022-10-03T04:43:40.840Z,59.11
2022-10-03T04:46:00.396Z,59.22
2022-10-03T04:48:13.118Z,60.88
2022-10-03T04:50:28.816Z,60.29
2022-10-03T04:52:36.528Z,60.74
2022-10-03T04:54:50.869Z,60.99
2022-10-03T04:57:00.261Z,61.88
2022-10-03T04:59:11.880Z,62.08
2022-10-03T05:01:20.499Z,63.35
2022-10-03T05:03:33.891Z,62.27
2022-10-03T05:05:51.575Z,61.78
2022-10-03T05:08:05.514Z,62.09
2022-10-03T05:10:26.632Z,62.42
2022-10-03T05:12:34.372Z,61.97
2022-10-03T05:15:01.267Z,61.85
2022-10-03T05:17:14.730Z,62.46
2022-10-03T05:19:47.513Z,61.27
2022-10-03T05:21:55.362Z,61.88
2022-10-03T05:24:07.909Z,62.42
2022-10-03T05:26:44.162Z,61.55
2022-10-03T05:28:51.391Z,62.17
2022-10-03T05:31:01.896Z,60.84
2022-10-03T05:33:11.717Z,59.77
2022-10-03T05:35:24.285Z,58.41
2022-10-03T05:37:50.093Z,58.40
2022-10-03T05:39:58.524Z,58.34
2022-10-03T05:42:23.942Z,58.74
2022-10-03T05:44:40.271Z,58.95
2022-10-03T05:46:57.606Z,59.28
2022-10-03T05:49:15.186Z,59.76
2022-10-03T05:51:44.218Z,60.13
2022-10-03T05:54:15.518Z,59.04
2022-10-03T05:56:35.608Z,59.14
2022-10-03T05:59:11.830Z,59.09
2022-10-03T06:01:43.877Z,60.21
2022-10-03T06:04:06.312Z,59.03
2022-10-03T06:06:16.431Z,59.83
2022-10-03T06:08:50.048Z,59.30
2022-10-03T06:11:02.339Z,59.51
2022-10-03T06:13:20.202Z,58.49
2022-10-03T06:15:39.355Z,58.67
2022-10-03T06:17:57.705Z,58.22
2022-10-03T06:20:16.670Z,58.64
2022-10-03T06:22:41.653Z,58.98
2022-10-03T06:25:28.965Z,58.94
2022-10-03T06:28:06.192Z,60.06
2022-10-03T06:30:22.539Z,60.16
2022-10-03T06:33:06.036Z,60.54
2022-10-03T06:35:37.262Z,61.53
2022-10-03T06:38:11.019Z,61.28
2022-10-03T06:41:00.668Z,62.42
2022-10-03T06:43:25.927Z,62.19
2022-10-03T06:46:13.307Z,62.03
2022-10-03T06:48:35.614Z,62.65
2022-10-03T06:50:53.574Z,62.58
2022-10-03T06:53:34.085Z,63.47
2022-10-03T06:56:17.883Z,63.46
2022-10-03T06:58:53.061Z,63.37
2022-10-03T07:01:04.802Z,63.50
2022-10-03T07:03:49.973Z,63.82
2022-10-03T07:06:22.037Z,65.00
2022-10-03T07:09:04.745Z,65.17
2022-10-03T07:11:24.709Z,63.95
2022-10-03T07:14:07.926Z,64.35
2022-10-03T07:16:29.300Z,64.65
2022-10-03T07:18:53.675Z,64.78
2022-10-03T07:21:25.441Z,64.29
2022-10-03T07:23:44.797Z,62.62
2022-10-03T07:26:22.532Z,61.16
2022-10-03T07:28:48.026Z,60.79
2022-10-03T07:31:00.850Z,60.11
2022-10-03T07:33:45.837Z,59.87
2022-10-03T07:36:22.417Z,61.86
2022-10-03T07:39:00.294Z,60.60
2022-10-03T07:41:26.629Z,61.70
2022-10-03T07:44:01.614Z,60.61
2022-10-03T07:46:35.751Z,61.17
2022-10-03T07:49:05.333Z,61.12
2022-10-03T07:51:16.643Z,61.03
2022-10-03T07:53:55.935Z,59.97
2022-10-03T07:56:09.759Z,60.55
2022-10-03T07:58:56.182Z,62.05
2022-10-03T08:01:28.027Z,58.81
2022-10-03T08:06:37.858Z,57.65
2022-10-03T08:09:02.998Z,59.36
2022-10-03T08:11:32.304Z,60.65
2022-10-03T08:13:54.005Z,59.92
2022-10-03T08:16:14.333Z,57.91
2022-10-03T08:18:48.768Z,58.72
2022-10-03T08:20:54.372Z,60.66
2022-10-03T08:23:14.924Z,57.01
2022-10-03T08:25:26.747Z,57.90
2022-10-03T08:28:00.268Z,59.18
2022-10-03T08:30:31.584Z,56.43
2022-10-03T08:32:55.780Z,59.75
2022-10-03T08:35:20.808Z,59.61
2022-10-03T08:37:51.772Z,60.53
2022-10-03T08:40:23.448Z,59.75
2022-10-03T08:43:09.399Z,60.12
2022-10-03T08:45:35.931Z,60.01
2022-10-03T08:47:55.817Z,58.80
2022-10-03T08:50:34.101Z,59.09
2022-10-03T08:52:47.198Z,58.55
2022-10-03T08:55:21.881Z,59.97
2022-10-03T08:57:50.327Z,58.09
2022-10-03T09:00:08.319Z,58.38
2022-10-03T09:02:42.772Z,58.76
2022-10-03T09:05:21.640Z,57.95
2022-10-03T09:07:50.033Z,58.04
2022-10-03T09:10:32.675Z,56.51
2022-10-03T09:13:08.451Z,57.60
2022-10-03T09:15:42.854Z,58.05
2022-10-03T09:18:19.585Z,56.18
2022-10-03T09:21:01.104Z,57.29
2022-10-03T09:23:23.920Z,53.83
2022-10-03T09:25:40.142Z,54.88
2022-10-03T09:28:20.010Z,54.46
2022-10-03T09:30:32.812Z,53.41
2022-10-03T09:33:17.396Z,56.50
2022-10-03T09:35:44.645Z,56.41
2022-10-03T09:38:16.513Z,56.49
2022-10-03T09:40:56.694Z,56.06
2022-10-03T09:43:20.355Z,55.78
2022-10-03T09:45:53.662Z,55.42
2022-10-03T09:48:26.518Z,55.46
2022-10-03T09:50:53.959Z,55.40
2022-10-03T09:53:27.371Z,56.27
2022-10-03T09:55:49.600Z,55.70
2022-10-03T09:58:16.432Z,54.97
2022-10-03T10:00:21.687Z,54.27
2022-10-03T10:03:03.175Z,53.84
2022-10-03T10:05:31.164Z,53.39
2022-10-03T10:08:08.658Z,54.40
2022-10-03T10:10:54.955Z,55.18
2022-10-03T10:13:56.112Z,53.71
2022-10-03T10:16:32.722Z,54.40
2022-10-03T10:19:09.869Z,54.15
2022-10-03T10:21:47.835Z,51.69
2022-10-03T10:24:00.990Z,53.59
2022-10-03T10:27:03.370Z,52.04
2022-10-03T10:29:30.471Z,52.01
2022-10-03T10:32:08.072Z,51.05
2022-10-03T10:34:56.735Z,52.23
2022-10-03T10:37:32.922Z,52.45
2022-10-03T10:40:04.450Z,49.84
2022-10-03T10:42:46.995Z,49.58
2022-10-03T10:45:32.930Z,49.92
2022-10-03T10:48:20.179Z,51.77
2022-10-03T10:51:08.115Z,49.12
2022-10-03T10:53:46.099Z,50.48
2022-10-03T10:56:28.787Z,49.41
2022-10-03T10:59:31.247Z,49.65
2022-10-03T11:02:06.610Z,47.00
2022-10-03T11:05:06.424Z,45.31
2022-10-03T11:07:35.728Z,42.51
2022-10-03T11:10:04.502Z,42.74
2022-10-03T11:12:36.284Z,39.41
2022-10-03T11:15:18.239Z,38.15
2022-10-03T11:17:51.402Z,39.10
2022-10-03T11:20:37.389Z,39.68
2022-10-03T11:23:12.290Z,40.10
2022-10-03T11:25:58.512Z,39.39
2022-10-03T11:28:42.996Z,39.94
2022-10-03T11:31:27.576Z,38.64
2022-10-03T11:34:10.928Z,39.53
2022-10-03T11:37:00.537Z,40.89
2022-10-03T11:39:07.371Z,40.89
2022-10-03T11:41:24.395Z,40.61
2022-10-03T11:44:05.297Z,38.56
2022-10-03T11:46:21.824Z,41.08
2022-10-03T11:48:39.110Z,40.13
2022-10-03T11:50:48.032Z,41.45
2022-10-03T11:53:10.564Z,42.55
2022-10-03T11:55:25.397Z,41.35
2022-10-03T11:57:30.605Z,41.95
2022-10-03T11:59:53.546Z,43.19
2022-10-03T12:02:07.809Z,41.77
2022-10-03T12:04:17.800Z,43.39
2022-10-03T12:06:31.717Z,43.31
2022-10-03T12:08:38.108Z,44.15
2022-10-03T12:10:52.441Z,42.95
2022-10-03T12:12:57.432Z,44.79
2022-10-03T12:15:10.318Z,46.41
2022-10-03T12:17:14.749Z,46.41
2022-10-03T12:19:24.239Z,46.07
2022-10-03T12:21:36.538Z,45.80
2022-10-03T12:24:13.432Z,45.96
2022-10-03T12:26:24.119Z,46.76
2022-10-03T12:28:32.361Z,46.41
2022-10-03T12:30:46.378Z,47.62
2022-10-03T12:33:08.249Z,47.93
2022-10-03T12:35:24.453Z,47.44
2022-10-03T12:37:44.600Z,45.83
2022-10-03T12:39:54.885Z,46.49
2022-10-03T12:42:13.405Z,43.13
2022-10-03T12:44:27.696Z,43.38
2022-10-03T12:46:39.333Z,44.66
2022-10-03T12:48:47.028Z,43.93
2022-10-03T12:50:57.297Z,43.56
2022-10-03T12:53:28.387Z,44.97
2022-10-03T12:55:34.582Z,45.65
2022-10-03T12:58:00.603Z,44.61
2022-10-03T13:00:05.388Z,44.58
2022-10-03T13:02:23.664Z,45.11
2022-10-03T13:04:40.502Z,43.56
2022-10-03T13:09:58.302Z,45.54
2022-10-03T13:12:08.106Z,44.78
2022-10-03T13:14:25.428Z,44.20
2022-10-03T13:16:32.621Z,45.68
2022-10-03T13:18:46.903Z,45.84
2022-10-03T13:20:58.532Z,44.73
2022-10-03T13:23:05.801Z,45.20
2022-10-03T13:25:14.085Z,44.68
2022-10-03T13:27:31.957Z,47.59
2022-10-03T13:29:41.309Z,44.85
2022-10-03T13:31:58.383Z,44.51
2022-10-03T13:34:04.939Z,42.67
2022-10-03T13:36:18.679Z,42.31
2022-10-03T13:38:44.313Z,43.75
2022-10-03T13:40:54.702Z,43.63
2022-10-03T13:42:59.735Z,44.05
2022-10-03T13:45:05.902Z,43.76
2022-10-03T13:47:26.788Z,42.97
2022-10-03T13:49:33.800Z,42.95
2022-10-03T13:51:45.486Z,42.51
2022-10-03T13:53:56.933Z,44.15
2022-10-03T13:56:06.579Z,43.11
2022-10-03T13:58:29.366Z,42.93
2022-10-03T14:00:45.569Z,43.13
2022-10-03T14:03:09.323Z,44.67
2022-10-03T14:05:50.472Z,45.30
2022-10-03T14:07:59.679Z,44.78
2022-10-03T14:10:12.041Z,46.82
2022-10-03T14:12:38.241Z,46.57
2022-10-03T14:14:58.880Z,45.43
2022-10-03T14:17:10.824Z,44.49
2022-10-03T14:19:20.781Z,45.75
2022-10-03T14:21:43.487Z,45.51
2022-10-03T14:23:51.322Z,44.88
2022-10-03T14:25:59.540Z,45.68
2022-10-03T14:28:08.266Z,45.13
2022-10-03T14:30:14.587Z,46.11
2022-10-03T14:32:46.106Z,45.10
2022-10-03T14:34:58.494Z,45.44
2022-10-03T14:37:13.535Z,43.10
2022-10-03T14:39:35.709Z,43.72
2022-10-03T14:41:46.174Z,43.33
2022-10-03T14:43:52.321Z,42.96
2022-10-03T14:45:58.925Z,42.78
2022-10-03T14:48:06.306Z,42.31
2022-10-03T14:50:16.647Z,43.47
2022-10-03T14:52:28.397Z,44.40
2022-10-03T14:54:31.590Z,44.63
2022-10-03T14:56:42.211Z,44.63
2022-10-03T14:58:46.589Z,44.25
2022-10-03T15:00:52.421Z,43.38
2022-10-03T15:02:54.510Z,42.75
2022-10-03T15:05:05.912Z,42.95
2022-10-03T15:07:08.674Z,43.06
2022-10-03T15:09:12.419Z,43.62
2022-10-03T15:11:16.954Z,42.05
2022-10-03T15:13:20.034Z,43.92
2022-10-03T15:15:27.182Z,43.62
2022-10-03T15:17:31.868Z,44.73
2022-10-03T15:19:38.344Z,47.75
2022-10-03T15:21:45.699Z,47.71
2022-10-03T15:23:54.403Z,44.57
2022-10-03T15:25:57.067Z,45.79
2022-10-03T15:28:04.477Z,45.49
2022-10-03T15:30:07.793Z,44.51
2022-10-03T15:32:20.961Z,43.50
2022-10-03T15:34:25.262Z,43.42
2022-10-03T15:36:30.414Z,44.74
2022-10-03T15:38:38.401Z,43.50
2022-10-03T15:40:50.968Z,43.34
2022-10-03T15:43:02.847Z,43.11
2022-10-03T15:45:06.967Z,43.75
2022-10-03T15:47:13.204Z,41.93
2022-10-03T15:49:23.036Z,42.69
2022-10-03T15:51:27.361Z,42.50
2022-10-03T15:53:36.409Z,43.77
2022-10-03T15:55:44.846Z,44.94
2022-10-03T15:57:57.989Z,45.88
2022-10-03T16:00:03.639Z,44.88
2022-10-03T16:02:15.585Z,45.59
2022-10-03T16:04:20.652Z,45.46
2022-10-03T16:06:25.646Z,45.12
2022-10-03T16:08:31.662Z,45.01
2022-10-03T16:10:38.177Z,47.29
2022-10-03T16:12:52.382Z,45.10
2022-10-03T16:15:01.953Z,49.21
2022-10-03T16:17:17.529Z,47.01
2022-10-03T16:19:34.003Z,50.42
2022-10-03T16:21:45.583Z,47.38
2022-10-03T16:23:52.085Z,45.46
2022-10-03T16:25:56.767Z,44.95
2022-10-03T16:28:06.721Z,46.40
2022-10-03T16:30:19.445Z,46.57
2022-10-03T16:32:24.549Z,46.57
2022-10-03T16:34:28.631Z,47.41
2022-10-03T16:36:32.433Z,46.21
2022-10-03T16:38:39.733Z,46.22
2022-10-03T16:40:41.482Z,44.55
2022-10-03T16:42:45.345Z,45.32
2022-10-03T16:44:53.791Z,45.51
2022-10-03T16:47:01.113Z,45.58
2022-10-03T16:49:10.234Z,46.88
2022-10-03T16:51:18.955Z,47.66
2022-10-03T16:53:21.774Z,45.64
2022-10-03T16:55:28.854Z,48.83
2022-10-03T16:57:41.595Z,47.23
2022-10-03T16:59:48.119Z,46.82
2022-10-03T17:01:54.307Z,46.79
2022-10-03T17:04:02.657Z,47.80
2022-10-03T17:06:07.306Z,48.11
2022-10-03T17:08:36.852Z,47.25
2022-10-03T17:10:39.070Z,47.62
2022-10-03T17:12:45.103Z,48.23
2022-10-03T17:14:48.133Z,48.04
2022-10-03T17:16:59.823Z,47.83
2022-10-03T17:19:13.875Z,48.44
2022-10-03T17:21:24.057Z,47.61
2022-10-03T17:23:33.718Z,47.17
2022-10-03T17:25:45.328Z,47.70
2022-10-03T17:27:50.045Z,47.86
2022-10-03T17:29:57.062Z,46.58
2022-10-03T17:32:03.099Z,48.54
2022-10-03T17:34:12.429Z,47.94
2022-10-03T17:36:38.774Z,48.05
2022-10-03T17:38:51.128Z,48.19
2022-10-03T17:41:12.580Z,49.05
2022-10-03T17:43:23.854Z,49.03
2022-10-03T17:45:33.196Z,47.60
2022-10-03T17:47:52.666Z,48.56
2022-10-03T17:50:00.696Z,49.16
2022-10-03T17:52:03.046Z,49.01
2022-10-03T17:54:11.511Z,50.36
2022-10-03T17:56:17.304Z,49.24
2022-10-03T17:58:23.351Z,49.66
2022-10-03T18:00:27.887Z,50.00
2022-10-03T18:02:40.768Z,49.29
2022-10-03T18:04:46.729Z,50.12
2022-10-03T18:06:51.536Z,50.28
2022-10-03T18:08:54.687Z,50.55
2022-10-03T18:10:58.918Z,49.40
2022-10-03T18:13:06.233Z,50.75
2022-10-03T18:15:26.516Z,50.28
2022-10-03T18:17:39.633Z,50.53
2022-10-03T18:19:55.964Z,50.31
2022-10-03T18:22:05.603Z,50.24
2022-10-03T18:24:21.480Z,50.11
2022-10-03T18:26:27.149Z,50.65
2022-10-03T18:28:33.595Z,51.21
2022-10-03T18:30:44.083Z,50.51
2022-10-03T18:32:48.200Z,51.31
2022-10-03T18:34:59.212Z,51.49
2022-10-03T18:37:16.898Z,51.99
2022-10-03T18:39:23.084Z,52.07
2022-10-03T18:41:25.218Z,51.67
2022-10-03T18:43:39.004Z,52.96
2022-10-03T18:45:44.553Z,52.96
2022-10-03T18:47:53.100Z,52.78
2022-10-03T18:50:11.002Z,52.23
2022-10-03T18:52:19.632Z,51.93
2022-10-03T18:54:31.051Z,52.68
2022-10-03T18:56:33.593Z,52.48
2022-10-03T18:58:38.331Z,51.93
2022-10-03T19:00:47.744Z,52.14
2022-10-03T19:02:53.297Z,51.82
2022-10-03T19:05:03.477Z,52.15
2022-10-03T19:07:17.433Z,52.14
2022-10-03T19:09:25.857Z,51.96
2022-10-03T19:11:31.633Z,52.21
2022-10-03T19:13:41.784Z,52.98
2022-10-03T19:16:03.517Z,52.51
2022-10-03T19:18:17.905Z,53.01
2022-10-03T19:20:27.339Z,52.45
2022-10-03T19:22:32.556Z,52.29
2022-10-03T19:24:57.176Z,53.26
2022-10-03T19:27:00.450Z,53.19
2022-10-03T19:29:05.765Z,52.52
2022-10-03T19:31:16.258Z,52.61
2022-10-03T19:33:25.509Z,52.50
2022-10-03T19:35:30.192Z,52.64
2022-10-03T19:37:45.292Z,52.58
2022-10-03T19:39:48.121Z,53.17
2022-10-03T19:41:54.535Z,52.41
2022-10-03T19:44:02.728Z,52.88
2022-10-03T19:46:24.955Z,52.50
2022-10-03T19:48:28.819Z,53.47
2022-10-03T19:50:34.371Z,54.07
2022-10-03T19:52:38.306Z,53.76
2022-10-03T19:54:51.597Z,53.30
2022-10-03T19:56:54.612Z,53.91
2022-10-03T19:59:04.069Z,53.25
2022-10-03T20:01:05.899Z,53.30
2022-10-03T20:03:15.237Z,53.68
2022-10-03T20:05:19.500Z,53.33
2022-10-03T20:07:37.793Z,53.80
2022-10-03T20:09:55.958Z,54.06
2022-10-03T20:12:01.666Z,53.94
2022-10-03T20:14:03.882Z,54.17
2022-10-03T20:16:05.671Z,54.49
2022-10-03T20:18:11.760Z,54.02
2022-10-03T20:20:21.505Z,53.87
2022-10-03T20:22:25.973Z,54.43
2022-10-03T20:24:34.103Z,54.19
2022-10-03T20:26:42.410Z,54.16
2022-10-03T20:28:59.778Z,53.80
2022-10-03T20:31:01.666Z,53.98
2022-10-03T20:33:04.901Z,53.75
2022-10-03T20:35:07.002Z,54.55
2022-10-03T20:37:36.515Z,54.06
2022-10-03T20:39:44.611Z,53.41
2022-10-03T20:42:00.322Z,53.24
2022-10-03T20:44:11.124Z,53.63
2022-10-03T20:46:25.078Z,53.70
2022-10-03T20:48:32.651Z,53.49
2022-10-03T20:50:38.253Z,53.48
2022-10-03T20:52:40.188Z,53.32
2022-10-03T20:54:52.228Z,53.63
2022-10-03T20:56:58.121Z,53.28
2022-10-03T20:59:05.098Z,53.20
2022-10-03T21:01:10.634Z,53.45
2022-10-03T21:03:21.623Z,53.72
2022-10-03T21:05:27.116Z,53.67
2022-10-03T21:07:35.764Z,53.70
2022-10-03T21:09:44.792Z,53.00
2022-10-03T21:11:54.555Z,53.69
2022-10-03T21:13:59.896Z,54.66
2022-10-03T21:16:04.332Z,53.80
2022-10-03T21:18:11.603Z,53.63
2022-10-03T21:20:18.746Z,53.57
2022-10-03T21:22:23.303Z,53.93
2022-10-03T21:24:28.870Z,53.39
2022-10-03T21:26:33.975Z,53.69
2022-10-03T21:28:37.887Z,53.32
2022-10-03T21:31:00.686Z,54.09
2022-10-03T21:33:11.489Z,53.31
2022-10-03T21:35:23.386Z,53.95
2022-10-03T21:37:31.416Z,53.79
2022-10-03T21:39:52.931Z,54.26
2022-10-03T21:42:08.088Z,53.66
2022-10-03T21:44:28.366Z,53.59
2022-10-03T21:46:38.565Z,53.42
2022-10-03T21:49:01.809Z,53.00
2022-10-03T21:51:17.982Z,52.70
2022-10-03T21:53:30.026Z,52.56
2022-10-03T21:55:53.337Z,51.94
2022-10-03T21:58:07.158Z,52.66
2022-10-03T22:00:13.979Z,52.22
2022-10-03T22:02:23.121Z,53.24
2022-10-03T22:04:33.982Z,52.83
2022-10-03T22:06:38.994Z,53.29
2022-10-03T22:08:44.098Z,53.96
2022-10-03T22:10:59.731Z,53.05
2022-10-03T22:13:07.754Z,53.27
2022-10-03T22:15:19.706Z,53.17
2022-10-03T22:17:29.413Z,52.36
2022-10-03T22:19:38.090Z,52.17
2022-10-03T22:21:48.554Z,53.13
2022-10-03T22:23:59.566Z,52.41
2022-10-03T22:26:17.718Z,52.29
2022-10-03T22:28:32.071Z,52.77
2022-10-03T22:30:49.381Z,53.96
2022-10-03T22:33:03.279Z,53.02
2022-10-03T22:35:20.111Z,53.11
2022-10-03T22:37:21.970Z,53.04
2022-10-03T22:39:23.615Z,54.24
2022-10-03T22:41:29.180Z,53.33
2022-10-03T22:43:34.362Z,53.34
2022-10-03T22:45:47.790Z,53.47
2022-10-03T22:47:53.237Z,53.69
2022-10-03T22:49:58.735Z,54.19
2022-10-03T22:52:03.655Z,53.60
2022-10-03T22:54:10.917Z,53.16
2022-10-03T22:56:41.897Z,53.12
2022-10-03T22:58:43.678Z,53.39
2022-10-03T23:00:49.588Z,53.85
2022-10-03T23:02:58.100Z,52.83
2022-10-03T23:05:02.753Z,52.69
2022-10-03T23:07:27.722Z,52.11
2022-10-03T23:09:36.842Z,52.19
2022-10-03T23:11:42.335Z,52.55
2022-10-03T23:13:44.835Z,52.83
2022-10-03T23:15:51.822Z,53.43
2022-10-03T23:18:16.552Z,53.31
2022-10-03T23:20:29.627Z,53.28
2022-10-03T23:22:35.083Z,53.15
2022-10-03T23:24:43.505Z,52.96
2022-10-03T23:27:06.399Z,53.30
2022-10-03T23:29:11.934Z,52.41
2022-10-03T23:31:49.148Z,53.42
2022-10-03T23:33:52.187Z,53.26
2022-10-03T23:35:54.106Z,53.84
2022-10-03T23:37:55.912Z,52.91
2022-10-03T23:40:27.868Z,53.24
2022-10-03T23:42:41.695Z,53.92
2022-10-03T23:44:49.582Z,52.73
2022-10-03T23:46:53.169Z,52.71
2022-10-03T23:48:56.959Z,53.49
2022-10-03T23:51:01.127Z,53.27
2022-10-03T23:53:03.936Z,54.18
2022-10-03T23:55:07.918Z,54.56
2022-10-03T23:57:09.688Z,54.24
2022-10-03T23:59:20.861Z,54.42
